createdAt,value
2022-09-27T00:02:16.735Z,98191.19
2022-09-27T00:12:22.499Z,98188.67
2022-09-27T00:22:29.449Z,98177.84
2022-09-27T00:32:35.197Z,98172.42
2022-09-27T00:42:41.098Z,98169.88
2022-09-27T00:52:55.258Z,98159.17
2022-09-27T01:03:02.112Z,98150.04
2022-09-27T01:13:20.394Z,98148.20
2022-09-27T01:23:56.752Z,98129.42
2022-09-27T01:34:08.691Z,98108.67
2022-09-27T01:44:22.255Z,98101.61
2022-09-27T01:54:33.958Z,98093.20
2022-09-27T02:04:42.650Z,98080.61
2022-09-27T02:14:54.002Z,98067.65
2022-09-27T02:25:03.734Z,98062.34
2022-09-27T02:35:14.861Z,98047.56
2022-09-27T02:45:21.813Z,98046.42
2022-09-27T02:55:38.731Z,98042.66
2022-09-27T03:05:48.752Z,98029.48
2022-09-27T03:15:57.031Z,98023.71
2022-09-27T03:26:05.180Z,98025.31
2022-09-27T03:36:12.573Z,98021.11
2022-09-27T03:46:18.324Z,98006.54
2022-09-27T03:56:23.942Z,97993.36
2022-09-27T04:06:29.706Z,97976.59
2022-09-27T04:16:35.617Z,97951.32
2022-09-27T04:26:41.574Z,97953.89
2022-09-27T04:36:47.286Z,97962.11
2022-09-27T04:46:52.963Z,97960.47
2022-09-27T04:56:58.785Z,97955.95
2022-09-27T05:07:05.094Z,97948.73
2022-09-27T05:17:10.862Z,97954.10
2022-09-27T05:27:20.296Z,97952.11
2022-09-27T05:37:26.023Z,97957.10
2022-09-27T05:47:31.633Z,97953.09
2022-09-27T05:57:37.169Z,97947.25
2022-09-27T06:07:42.811Z,97945.46
2022-09-27T06:17:48.487Z,97934.48
2022-09-27T06:27:54.596Z,97924.77
2022-09-27T06:38:03.657Z,97922.14
2022-09-27T06:48:12.589Z,97933.15
2022-09-27T06:58:36.178Z,97937.33
2022-09-27T07:08:41.756Z,97936.31
2022-09-27T07:18:48.708Z,97933.70
2022-09-27T07:28:54.422Z,97939.30
2022-09-27T07:39:01.284Z,97949.16
2022-09-27T07:49:07.036Z,97945.89
2022-09-27T07:59:12.628Z,97941.77
2022-09-27T08:09:18.439Z,97937.00
2022-09-27T08:19:24.159Z,97941.56
2022-09-27T08:29:29.756Z,97944.48
2022-09-27T08:39:35.601Z,97944.45
2022-09-27T08:49:46.750Z,97929.69
2022-09-27T09:00:07.215Z,97922.80
2022-09-27T09:10:47.106Z,97916.16
2022-09-27T09:21:04.667Z,97905.66
2022-09-27T09:31:22.045Z,97901.66
2022-09-27T09:41:33.682Z,97897.25
2022-09-27T09:51:45.349Z,97886.06
2022-09-27T10:01:51.273Z,97876.89
2022-09-27T10:11:57.268Z,97871.63
2022-09-27T10:22:13.318Z,97859.84
2022-09-27T10:32:27.445Z,97841.42
2022-09-27T10:42:38.691Z,97838.95
2022-09-27T10:52:44.366Z,97825.52
2022-09-27T11:02:55.339Z,97802.45
2022-09-27T11:13:14.404Z,97788.58
2022-09-27T11:23:43.110Z,97782.14
2022-09-27T11:33:59.751Z,97780.67
2022-09-27T11:44:35.565Z,97768.84
2022-09-27T11:54:55.801Z,97758.02
2022-09-27T12:05:17.788Z,97743.14
2022-09-27T12:15:27.231Z,97741.95
2022-09-27T12:25:37.233Z,97721.24
2022-09-27T12:35:50.774Z,97717.19
2022-09-27T12:46:07.016Z,97712.50
2022-09-27T12:56:36.470Z,97704.56
2022-09-27T13:06:59.130Z,97694.57
2022-09-27T13:17:05.063Z,97671.96
2022-09-27T13:27:38.648Z,97649.09
2022-09-27T13:37:55.379Z,97644.33
2022-09-27T13:48:02.899Z,97637.27
2022-09-27T13:58:22.013Z,97632.58
2022-09-27T14:08:33.526Z,97637.42
2022-09-27T14:18:50.687Z,97640.52
2022-09-27T14:28:56.605Z,97638.38
2022-09-27T14:39:02.815Z,97632.81
2022-09-27T14:49:23.129Z,97628.77
2022-09-27T14:59:33.338Z,97628.75
2022-09-27T15:09:40.639Z,97627.22
2022-09-27T15:19:59.252Z,97622.27
2022-09-27T15:30:05.701Z,97616.81
2022-09-27T15:40:55.710Z,97617.52
2022-09-27T15:51:03.317Z,97624.96
2022-09-27T16:01:09.391Z,97629.70
2022-09-27T16:11:17.862Z,97652.96
2022-09-27T16:21:23.529Z,97658.40
2022-09-27T16:31:29.262Z,97685.35
2022-09-27T16:41:35.834Z,97726.40
2022-09-27T16:51:58.890Z,97719.15
2022-09-27T17:02:05.480Z,97713.48
2022-09-27T17:12:12.042Z,97722.17
2022-09-27T17:22:18.124Z,97715.97
2022-09-27T17:32:24.743Z,97717.05
2022-09-27T17:42:30.579Z,97713.85
2022-09-27T17:52:36.441Z,97725.17
2022-09-27T18:02:42.271Z,97739.17
2022-09-27T18:12:47.989Z,97746.35
2022-09-27T18:22:54.035Z,97769.43
2022-09-27T18:32:59.795Z,97780.52
2022-09-27T18:43:05.599Z,97784.95
2022-09-27T18:53:11.282Z,97795.44
2022-09-27T19:03:17.417Z,97793.83
2022-09-27T19:13:27.808Z,97786.24
2022-09-27T19:23:34.631Z,97779.73
2022-09-27T19:33:40.502Z,97778.98
2022-09-27T19:43:51.188Z,97779.30
2022-09-27T19:53:56.992Z,97776.02
2022-09-27T20:04:03.273Z,97770.89
2022-09-27T20:14:09.216Z,97755.19
2022-09-27T20:24:14.911Z,97749.78
2022-09-27T20:34:20.918Z,97751.19
2022-09-27T20:44:26.567Z,97757.06
2022-09-27T20:54:33.060Z,97758.55
2022-09-27T21:04:38.705Z,97751.55
2022-09-27T21:14:44.398Z,97751.63
2022-09-27T21:24:50.140Z,97741.84
2022-09-27T21:34:56.003Z,97742.05
2022-09-27T21:45:01.718Z,97742.20
2022-09-27T21:55:09.038Z,97741.81
2022-09-27T22:05:14.952Z,97735.65
2022-09-27T22:15:22.245Z,97736.88
2022-09-27T22:25:29.341Z,97727.37
2022-09-27T22:35:35.131Z,97729.66
2022-09-27T22:45:40.868Z,97731.05
2022-09-27T22:55:57.425Z,97735.70
2022-09-27T23:06:07.486Z,97735.23
2022-09-27T23:16:14.595Z,97737.13
2022-09-27T23:26:24.085Z,97729.70
2022-09-27T23:36:30.097Z,97733.86
2022-09-27T23:46:37.426Z,97727.52
2022-09-27T23:56:43.437Z,97737.09
